Time;durP1;ratioP1;P1;durP2;ratioP2;P2;SDS_P1;SDS_P2;PMS_P1;PMS_P2;Temp;Humidity;BMP_temperature;BMP_pressure;BME280_temperature;BME280_humidity;BME280_pressure;Samples;Min_cycle;Max_cycle;Signal;HPM_P1;HPM_P2
2021/08/01 00:01:27;;;;;;;5.20;3.47;;;19.70;52.80;;;;;;5095953;28;20440;-78
2021/08/01 00:03:54;;;;;;;4.23;3.83;;;19.70;53.30;;;;;;5097104;28;20427;-82
2021/08/01 00:06:21;;;;;;;5.67;4.03;;;19.70;53.30;;;;;;5098146;28;20444;-81
2021/08/01 00:08:48;;;;;;;4.27;3.87;;;19.70;54.50;;;;;;5083188;28;20448;-78
2021/08/01 00:11:16;;;;;;;4.57;4.17;;;19.60;55.50;;;;;;5070006;28;20480;-80
2021/08/01 00:13:43;;;;;;;5.20;4.30;;;19.50;56.00;;;;;;5077209;28;20448;-80
2021/08/01 00:16:10;;;;;;;4.20;3.90;;;19.20;57.80;;;;;;5094483;28;20488;-79
2021/08/01 00:18:37;;;;;;;6.93;3.93;;;19.10;57.80;;;;;;5078709;28;20495;-79
2021/08/01 00:21:04;;;;;;;4.60;3.93;;;19.20;57.90;;;;;;5063260;28;20527;-80
2021/08/01 00:23:31;;;;;;;4.40;3.80;;;19.20;57.90;;;;;;5059153;28;20453;-80
2021/08/01 00:25:59;;;;;;;4.23;3.80;;;19.30;56.90;;;;;;5059598;28;20508;-79
2021/08/01 00:28:27;;;;;;;7.50;3.73;;;19.30;55.90;;;;;;5059082;28;20472;-79
2021/08/01 00:30:54;;;;;;;4.77;3.97;;;19.30;55.80;;;;;;5077855;28;20552;-79
2021/08/01 00:33:21;;;;;;;7.60;3.80;;;19.30;55.40;;;;;;5080889;28;20464;-79
2021/08/01 00:35:48;;;;;;;5.93;4.50;;;19.30;55.30;;;;;;5095066;28;20476;-80
2021/08/01 00:38:15;;;;;;;4.67;3.63;;;19.20;55.00;;;;;;5094571;28;20476;-80
2021/08/01 00:40:42;;;;;;;4.53;4.13;;;19.20;55.20;;;;;;5095387;28;20443;-80
2021/08/01 00:43:09;;;;;;;4.53;3.93;;;19.30;55.00;;;;;;5098074;28;20440;-79
2021/08/01 00:45:37;;;;;;;4.63;3.77;;;19.30;54.90;;;;;;5093402;28;20474;-80
2021/08/01 00:48:06;;;;;;;3.80;3.40;;;19.20;54.70;;;;;;5083650;28;20426;-79
2021/08/01 00:50:33;;;;;;;3.70;3.40;;;19.20;54.90;;;;;;5075954;28;20461;-79
2021/08/01 00:53:02;;;;;;;4.27;3.87;;;19.20;55.00;;;;;;5068173;28;20460;-78
2021/08/01 00:55:29;;;;;;;4.40;3.83;;;19.20;55.40;;;;;;5069354;28;20440;-79
2021/08/01 00:57:56;;;;;;;5.40;3.73;;;19.20;55.80;;;;;;5072035;28;20477;-78
2021/08/01 01:00:41;;;;;;;6.27;4.40;;;19.10;57.00;;;;;;5081632;28;20430;-78
2021/08/01 01:03:16;;;;;;;6.50;4.20;;;19.10;57.80;;;;;;5093483;28;20496;-79
2021/08/01 01:05:52;;;;;;;7.87;4.73;;;19.10;58.40;;;;;;5076872;28;20446;-79
2021/08/01 01:08:26;;;;;;;5.03;3.60;;;19.10;57.80;;;;;;5061211;28;20487;-78
2021/08/01 01:10:59;;;;;;;5.03;3.97;;;19.10;57.80;;;;;;5055764;28;20531;-78
2021/08/01 01:13:28;;;;;;;5.53;3.97;;;19.00;57.80;;;;;;5056790;28;20532;-79
2021/08/01 01:15:59;;;;;;;5.10;4.00;;;19.00;58.50;;;;;;5073952;28;20446;-79
2021/08/01 01:18:31;;;;;;;4.53;3.70;;;19.00;59.00;;;;;;5075792;28;20455;-78
2021/08/01 01:21:12;;;;;;;5.67;3.60;;;18.90;59.20;;;;;;5077620;28;20997;-79
2021/08/01 01:23:44;;;;;;;5.33;3.77;;;18.90;59.10;;;;;;5083690;28;20430;-79
2021/08/01 01:26:15;;;;;;;3.83;3.53;;;18.90;59.10;;;;;;5062052;28;20486;-78
2021/08/01 01:28:48;;;;;;;5.13;3.83;;;18.80;59.30;;;;;;5061369;28;20913;-78
2021/08/01 01:31:32;;;;;;;4.03;3.10;;;18.80;59.00;;;;;;5057685;28;21036;-79
2021/08/01 01:34:10;;;;;;;7.63;4.20;;;18.80;58.60;;;;;;5056938;28;20411;-79
2021/08/01 01:36:40;;;;;;;3.93;3.63;;;18.80;58.90;;;;;;5055612;28;20480;-79
2021/08/01 01:39:08;;;;;;;5.83;3.60;;;18.80;58.60;;;;;;5054806;28;20492;-78
2021/08/01 01:41:38;;;;;;;4.97;3.53;;;18.80;57.50;;;;;;5074108;28;20515;-78
2021/08/01 01:44:07;;;;;;;4.73;4.00;;;18.80;57.50;;;;;;5074237;28;20494;-79
2021/08/01 01:46:36;;;;;;;4.13;3.77;;;18.80;57.50;;;;;;5076308;28;20534;-78
2021/08/01 01:49:04;;;;;;;3.40;3.10;;;18.80;57.50;;;;;;5078341;28;20497;-78
2021/08/01 01:51:32;;;;;;;6.93;3.50;;;18.80;57.50;;;;;;5057785;28;20489;-78
2021/08/01 01:54:01;;;;;;;7.47;3.53;;;18.80;57.50;;;;;;5058616;28;20444;-77
2021/08/01 01:56:29;;;;;;;3.53;3.20;;;18.80;57.50;;;;;;5072889;28;20818;-77
2021/08/01 01:58:58;;;;;;;4.40;3.33;;;18.80;57.50;;;;;;5076315;28;20457;-78
2021/08/01 02:01:24;;;;;;;5.77;3.80;;;18.80;57.50;;;;;;5076734;28;20450;-78
2021/08/01 02:03:51;;;;;;;3.87;3.30;;;18.70;57.40;;;;;;5077061;28;20454;-77
2021/08/01 02:06:18;;;;;;;5.60;4.00;;;18.70;57.40;;;;;;5077638;28;20573;-77
2021/08/01 02:08:55;;;;;;;5.93;3.70;;;18.70;58.00;;;;;;5085785;28;20505;-78
2021/08/01 02:11:27;;;;;;;5.60;3.30;;;18.70;58.70;;;;;;5085437;28;20419;-79
2021/08/01 02:14:03;;;;;;;5.57;3.40;;;18.60;59.20;;;;;;5083858;28;20475;-78
2021/08/01 02:16:35;;;;;;;3.60;3.30;;;18.60;59.50;;;;;;5069523;28;20961;-80
2021/08/01 02:19:05;;;;;;;4.80;3.60;;;18.60;60.80;;;;;;5077946;28;20490;-78
2021/08/01 02:21:33;;;;;;;4.77;3.80;;;18.60;61.90;;;;;;5080516;28;20482;-78
2021/08/01 02:24:02;;;;;;;4.10;3.70;;;18.50;61.30;;;;;;5079873;28;20496;-79
2021/08/01 02:26:34;;;;;;;5.77;4.00;;;18.40;62.80;;;;;;5062412;28;20866;-80
2021/08/01 02:29:01;;;;;;;4.10;3.47;;;18.40;63.90;;;;;;5061744;28;20503;-78
2021/08/01 02:31:29;;;;;;;3.80;3.50;;;18.40;64.30;;;;;;5093914;28;20418;-78
2021/08/01 02:33:56;;;;;;;8.40;4.30;;;18.30;64.60;;;;;;5083259;28;20425;-78
2021/08/01 02:36:25;;;;;;;4.17;3.77;;;18.20;66.10;;;;;;5068807;28;20519;-77
2021/08/01 02:38:56;;;;;;;4.70;3.70;;;18.30;66.20;;;;;;5066584;28;20515;-77
2021/08/01 02:41:29;;;;;;;4.33;3.77;;;18.20;66.10;;;;;;5097516;28;20430;-79
2021/08/01 02:44:01;;;;;;;4.10;3.70;;;18.20;66.10;;;;;;5097166;28;20526;-77
2021/08/01 02:46:30;;;;;;;3.90;3.20;;;18.20;66.30;;;;;;5080451;28;20429;-78
2021/08/01 02:49:03;;;;;;;6.00;4.03;;;18.10;68.00;;;;;;5070166;28;20459;-79
2021/08/01 02:51:32;;;;;;;8.20;3.87;;;18.10;70.10;;;;;;5080194;28;20704;-80
2021/08/01 02:54:01;;;;;;;4.57;4.17;;;18.10;70.00;;;;;;5079407;28;20433;-78
2021/08/01 02:56:31;;;;;;;4.97;3.70;;;18.00;70.40;;;;;;5080433;28;20454;-78
2021/08/01 02:59:02;;;;;;;6.67;3.60;;;18.00;71.20;;;;;;5088657;28;20459;-79
2021/08/01 03:01:30;;;;;;;4.47;3.80;;;17.90;71.20;;;;;;5061455;28;20433;-81
2021/08/01 03:03:58;;;;;;;5.07;3.57;;;17.90;72.60;;;;;;5060815;28;20828;-79
2021/08/01 03:06:32;;;;;;;4.10;3.80;;;17.90;74.80;;;;;;5073071;28;20435;-78
2021/08/01 03:09:01;;;;;;;5.87;3.70;;;17.90;74.10;;;;;;5077423;28;20468;-77
2021/08/01 03:11:32;;;;;;;3.63;3.33;;;17.90;74.80;;;;;;5097803;28;20435;-78
2021/08/01 03:14:01;;;;;;;4.03;3.73;;;17.80;75.20;;;;;;5083784;28;20510;-79
2021/08/01 03:16:28;;;;;;;5.63;4.07;;;17.80;76.60;;;;;;5061554;28;20464;-79
2021/08/01 03:18:55;;;;;;;6.13;3.97;;;17.80;76.30;;;;;;5070948;28;20507;-77
2021/08/01 03:21:22;;;;;;;6.13;3.60;;;17.80;77.50;;;;;;5072562;28;20448;-79
2021/08/01 03:23:49;;;;;;;7.10;4.03;;;17.70;78.40;;;;;;5075406;28;20459;-78
2021/08/01 03:26:16;;;;;;;6.50;4.00;;;17.60;77.90;;;;;;5061274;28;20881;-78
2021/08/01 03:28:43;;;;;;;5.10;4.00;;;17.60;80.00;;;;;;5056244;28;20459;-78
2021/08/01 03:31:11;;;;;;;5.23;4.23;;;17.60;80.10;;;;;;5056192;28;20585;-78
2021/08/01 03:33:38;;;;;;;5.27;4.00;;;17.50;80.10;;;;;;5056616;28;20463;-78
2021/08/01 03:36:05;;;;;;;5.40;3.90;;;17.50;80.10;;;;;;5057828;28;20483;-78
2021/08/01 03:38:32;;;;;;;4.93;4.43;;;17.40;80.60;;;;;;5061772;28;21016;-79
2021/08/01 03:40:59;;;;;;;5.23;4.40;;;17.40;83.00;;;;;;5062155;28;21027;-78
2021/08/01 03:43:26;;;;;;;6.43;4.50;;;17.40;84.60;;;;;;5067600;28;20465;-80
2021/08/01 03:45:53;;;;;;;6.03;3.93;;;17.30;88.20;;;;;;5090754;28;20518;-80
2021/08/01 03:48:22;;;;;;;8.40;4.90;;;17.10;89.60;;;;;;5082621;28;20451;-81
2021/08/01 03:50:49;;;;;;;5.70;4.70;;;17.00;90.40;;;;;;5073150;28;20455;-80
2021/08/01 03:53:15;;;;;;;7.43;5.70;;;16.90;92.20;;;;;;5076966;28;20463;-80
2021/08/01 03:55:42;;;;;;;7.57;5.47;;;16.90;94.10;;;;;;5077686;28;20456;-81
2021/08/01 03:58:09;;;;;;;5.30;4.80;;;16.90;94.10;;;;;;5085067;28;20482;-82
2021/08/01 04:00:36;;;;;;;5.13;4.63;;;16.90;94.60;;;;;;5086867;28;20489;-81
2021/08/01 04:03:03;;;;;;;6.10;5.50;;;16.90;94.30;;;;;;5077875;28;20431;-78
2021/08/01 04:05:32;;;;;;;5.13;4.63;;;16.80;95.50;;;;;;5062366;28;20460;-79
2021/08/01 04:07:58;;;;;;;4.80;4.40;;;16.90;96.00;;;;;;5060862;28;20538;-79
2021/08/01 04:10:25;;;;;;;6.13;5.40;;;16.90;94.50;;;;;;5056388;28;20561;-81
2021/08/01 04:12:52;;;;;;;6.60;4.90;;;16.90;94.80;;;;;;5060953;28;20459;-80
2021/08/01 04:15:19;;;;;;;5.30;4.80;;;17.00;95.20;;;;;;5059410;28;20458;-79
2021/08/01 04:17:46;;;;;;;5.30;4.40;;;16.90;94.60;;;;;;5066494;28;20497;-83
2021/08/01 04:20:15;;;;;;;5.27;4.77;;;16.90;94.10;;;;;;5092290;28;20441;-82
2021/08/01 04:22:43;;;;;;;7.87;4.70;;;16.90;94.10;;;;;;5096372;28;20425;-83
2021/08/01 04:25:11;;;;;;;5.07;4.57;;;17.00;94.20;;;;;;5077898;28;20479;-83
2021/08/01 04:27:38;;;;;;;9.23;5.33;;;17.00;93.80;;;;;;5078360;28;20429;-83
2021/08/01 04:30:06;;;;;;;5.10;4.57;;;17.00;94.20;;;;;;5068121;28;20473;-78
2021/08/01 04:32:33;;;;;;;5.17;4.67;;;17.10;93.40;;;;;;5063293;28;20556;-77
2021/08/01 04:35:00;;;;;;;7.47;5.00;;;17.10;93.50;;;;;;5059203;28;20550;-79
2021/08/01 04:37:27;;;;;;;5.30;4.70;;;17.10;93.30;;;;;;5058754;28;20506;-79
2021/08/01 04:39:55;;;;;;;5.20;4.70;;;17.20;93.30;;;;;;5057464;28;20940;-78
2021/08/01 04:42:22;;;;;;;6.73;4.77;;;17.20;93.40;;;;;;5054423;28;20820;-79
2021/08/01 04:44:49;;;;;;;5.33;4.80;;;17.30;94.00;;;;;;5094629;22;20593;-74
2021/08/01 04:47:16;;;;;;;6.43;4.37;;;17.40;93.10;;;;;;5073933;28;20542;-74
2021/08/01 04:49:43;;;;;;;4.87;4.43;;;17.40;92.50;;;;;;5073406;28;20482;-76
2021/08/01 04:52:16;;;;;;;5.17;4.67;;;17.50;92.50;;;;;;5074006;28;20493;-75
2021/08/01 04:54:43;;;;;;;6.13;4.70;;;17.40;91.80;;;;;;5074893;28;20478;-75
2021/08/01 04:57:11;;;;;;;10.67;4.60;;;17.50;91.80;;;;;;5076964;28;20525;-75
2021/08/01 04:59:38;;;;;;;6.07;4.77;;;17.50;90.70;;;;;;5074905;28;20533;-75
2021/08/01 05:02:05;;;;;;;7.83;4.73;;;17.50;91.70;;;;;;5076410;28;20455;-74
2021/08/01 05:04:32;;;;;;;8.60;4.93;;;17.50;91.80;;;;;;5074774;28;20459;-75
2021/08/01 05:06:59;;;;;;;8.37;4.70;;;17.50;90.90;;;;;;5074258;28;20487;-75
2021/08/01 05:09:26;;;;;;;4.73;4.33;;;17.50;90.20;;;;;;5074870;28;20451;-75
2021/08/01 05:11:53;;;;;;;6.37;4.20;;;17.60;90.20;;;;;;5076411;28;20546;-74
2021/08/01 05:14:21;;;;;;;4.80;4.30;;;17.60;91.00;;;;;;5078427;28;20486;-75
2021/08/01 05:16:48;;;;;;;6.53;4.20;;;17.60;89.10;;;;;;5077333;28;20497;-75
2021/08/01 05:19:15;;;;;;;7.97;4.20;;;17.60;88.20;;;;;;5074549;28;20504;-76
2021/08/01 05:21:43;;;;;;;4.60;4.10;;;17.60;88.30;;;;;;5073735;28;20486;-74
2021/08/01 05:24:10;;;;;;;4.93;4.53;;;17.50;89.40;;;;;;5074081;28;20548;-76
2021/08/01 05:26:36;;;;;;;6.07;4.23;;;17.50;89.40;;;;;;5073400;28;20470;-75
2021/08/01 05:29:03;;;;;;;5.10;4.70;;;17.60;90.60;;;;;;5073211;28;20906;-75
2021/08/01 05:31:31;;;;;;;5.33;4.53;;;17.60;90.00;;;;;;5073235;28;20477;-75
2021/08/01 05:33:58;;;;;;;4.57;4.13;;;17.60;89.50;;;;;;5073134;28;20521;-75
2021/08/01 05:36:25;;;;;;;7.90;4.43;;;17.70;88.60;;;;;;5073245;28;20904;-75
2021/08/01 05:38:52;;;;;;;8.13;4.37;;;17.70;86.00;;;;;;5076344;28;20505;-75
2021/08/01 05:41:20;;;;;;;6.07;4.50;;;17.70;86.80;;;;;;5075813;28;20557;-75
2021/08/01 05:43:47;;;;;;;4.50;4.20;;;17.70;86.00;;;;;;5079281;28;20538;-75
2021/08/01 05:46:14;;;;;;;4.43;4.03;;;17.70;87.40;;;;;;5095781;28;20490;-75
2021/08/01 05:48:42;;;;;;;5.90;4.80;;;17.70;86.90;;;;;;5091987;28;20452;-74
2021/08/01 05:51:09;;;;;;;4.50;4.10;;;17.70;86.90;;;;;;5087395;28;20486;-76
2021/08/01 05:53:36;;;;;;;5.27;4.27;;;17.60;86.70;;;;;;5082235;28;20953;-74
2021/08/01 05:56:10;;;;;;;8.43;4.43;;;17.70;87.50;;;;;;5079039;28;20475;-75
2021/08/01 05:58:37;;;;;;;6.63;4.40;;;17.70;87.70;;;;;;5077767;28;20548;-75
2021/08/01 06:01:13;;;;;;;6.13;4.70;;;17.60;87.20;;;;;;5071984;28;20546;-75
2021/08/01 06:03:42;;;;;;;7.90;4.43;;;17.70;88.20;;;;;;5072458;28;20490;-75
2021/08/01 06:06:13;;;;;;;5.07;4.57;;;17.70;88.20;;;;;;5072589;28;20563;-74
2021/08/01 06:08:41;;;;;;;4.53;4.13;;;17.80;88.50;;;;;;5071823;28;20541;-75
2021/08/01 06:11:08;;;;;;;9.43;5.10;;;17.80;88.50;;;;;;5072530;28;20538;-75
2021/08/01 06:13:35;;;;;;;5.00;4.60;;;17.60;88.70;;;;;;5073138;28;20875;-75
2021/08/01 06:16:03;;;;;;;6.00;4.90;;;17.70;89.30;;;;;;5074162;28;21041;-75
2021/08/01 06:18:30;;;;;;;5.13;4.50;;;17.70;89.40;;;;;;5072486;28;20487;-75
2021/08/01 06:21:06;;;;;;;7.40;5.00;;;17.80;89.00;;;;;;5072525;28;20535;-76
2021/08/01 06:23:33;;;;;;;6.53;5.03;;;17.80;87.80;;;;;;5072132;28;21058;-76
2021/08/01 06:26:00;;;;;;;5.83;4.90;;;17.80;86.20;;;;;;5072950;28;20687;-75
2021/08/01 06:28:27;;;;;;;6.70;4.40;;;17.80;85.90;;;;;;5072211;28;20538;-75
2021/08/01 06:30:54;;;;;;;7.00;4.27;;;17.90;85.20;;;;;;5072283;28;20444;-75
2021/08/01 06:33:20;;;;;;;7.07;4.00;;;18.00;82.20;;;;;;5072557;28;20578;-75
2021/08/01 06:35:47;;;;;;;6.30;4.33;;;18.10;80.50;;;;;;5072113;28;20475;-76
2021/08/01 06:38:16;;;;;;;4.00;3.60;;;18.10;80.50;;;;;;5073010;28;20937;-75
2021/08/01 06:40:43;;;;;;;5.20;3.33;;;18.10;77.30;;;;;;5079524;28;20696;-76
2021/08/01 06:43:10;;;;;;;4.40;3.40;;;18.20;77.00;;;;;;5076687;28;21127;-75
2021/08/01 06:45:37;;;;;;;3.80;3.20;;;18.30;75.10;;;;;;5079459;28;20474;-76
2021/08/01 06:48:06;;;;;;;3.53;2.77;;;18.30;73.70;;;;;;5079299;28;20432;-75
2021/08/01 06:50:33;;;;;;;2.97;2.70;;;18.40;70.80;;;;;;5080230;28;20483;-76
2021/08/01 06:53:00;;;;;;;3.40;2.77;;;18.60;67.90;;;;;;5079084;28;20422;-77
2021/08/01 06:55:29;;;;;;;5.13;3.07;;;18.50;67.10;;;;;;5079062;28;20483;-75
2021/08/01 06:57:56;;;;;;;3.33;2.27;;;18.50;66.60;;;;;;5077957;28;20431;-75
2021/08/01 07:00:24;;;;;;;3.70;2.50;;;18.50;66.40;;;;;;5072325;28;20484;-77
2021/08/01 07:02:54;;;;;;;2.50;2.30;;;18.60;66.50;;;;;;5082355;28;20554;-74
2021/08/01 07:05:22;;;;;;;4.80;2.60;;;18.60;66.50;;;;;;5079891;28;20533;-76
2021/08/01 07:07:53;;;;;;;5.77;2.70;;;18.70;66.60;;;;;;5083026;28;20953;-76
2021/08/01 07:10:20;;;;;;;5.20;3.00;;;18.80;66.70;;;;;;5075527;28;20489;-76
2021/08/01 07:12:49;;;;;;;2.80;2.60;;;18.90;67.70;;;;;;5070637;28;20425;-76
2021/08/01 07:15:18;;;;;;;3.57;2.77;;;19.10;68.00;;;;;;5075472;28;20475;-76
2021/08/01 07:17:47;;;;;;;3.77;2.50;;;19.20;68.40;;;;;;5076078;28;20516;-77
2021/08/01 07:20:16;;;;;;;3.47;3.17;;;19.10;67.00;;;;;;5077026;28;20973;-75
2021/08/01 07:22:43;;;;;;;3.63;2.40;;;19.00;69.40;;;;;;5078336;28;20449;-77
2021/08/01 07:25:11;;;;;;;4.07;2.60;;;19.20;69.20;;;;;;5078824;28;20690;-75
2021/08/01 07:27:38;;;;;;;2.37;2.13;;;19.30;67.10;;;;;;5078217;28;20501;-76
2021/08/01 07:30:07;;;;;;;5.30;3.63;;;19.30;67.10;;;;;;5077419;28;20498;-77
2021/08/01 07:32:35;;;;;;;3.47;3.07;;;19.40;67.20;;;;;;5084457;28;20426;-77
2021/08/01 07:35:02;;;;;;;4.20;2.70;;;19.60;65.20;;;;;;5088073;28;20454;-76
2021/08/01 07:37:29;;;;;;;2.73;2.53;;;19.70;64.30;;;;;;5089846;28;20550;-76
2021/08/01 07:39:57;;;;;;;2.40;2.20;;;19.80;63.60;;;;;;5082529;28;20942;-77
2021/08/01 07:42:27;;;;;;;4.50;2.37;;;20.10;63.00;;;;;;5085052;28;20410;-77
2021/08/01 07:45:02;;;;;;;4.50;2.40;;;20.10;61.60;;;;;;5085621;28;20503;-77
2021/08/01 07:47:34;;;;;;;4.03;2.47;;;20.10;61.90;;;;;;5082145;28;20506;-76
2021/08/01 07:50:03;;;;;;;3.17;2.87;;;20.00;61.40;;;;;;5060188;28;20556;-77
2021/08/01 07:52:30;;;;;;;4.33;2.50;;;20.20;60.00;;;;;;5074296;28;20928;-76
2021/08/01 07:54:57;;;;;;;3.20;2.90;;;20.20;60.40;;;;;;5081721;28;20482;-77
2021/08/01 07:57:25;;;;;;;3.30;2.60;;;20.10;59.30;;;;;;5076572;28;20951;-76
2021/08/01 07:59:53;;;;;;;3.27;2.67;;;20.00;60.50;;;;;;5078259;28;20567;-76
2021/08/01 08:02:20;;;;;;;3.70;2.47;;;20.00;60.70;;;;;;5088639;28;20427;-76
2021/08/01 08:04:50;;;;;;;2.90;2.60;;;19.90;61.10;;;;;;5095187;28;20491;-78
2021/08/01 08:07:17;;;;;;;7.07;5.20;;;19.80;61.60;;;;;;5095393;28;20452;-76
2021/08/01 08:09:44;;;;;;;3.27;2.43;;;19.90;61.50;;;;;;5089584;28;20430;-76
2021/08/01 08:12:12;;;;;;;4.40;2.77;;;19.90;60.70;;;;;;5091493;28;20430;-77
2021/08/01 08:17:22;;;;;;;3.63;3.20;;;20.00;60.90;;;;;;5080720;28;20436;-76
2021/08/01 08:19:50;;;;;;;3.07;2.87;;;20.10;60.10;;;;;;5078941;28;20476;-77
2021/08/01 08:22:18;;;;;;;3.00;2.60;;;20.20;59.30;;;;;;5081767;28;20461;-75
2021/08/01 08:24:45;;;;;;;4.60;3.47;;;20.10;60.10;;;;;;5087179;28;20448;-76
2021/08/01 08:27:12;;;;;;;3.73;3.23;;;20.20;59.60;;;;;;5082924;28;20811;-77
2021/08/01 08:29:39;;;;;;;5.23;3.10;;;20.10;59.80;;;;;;5083970;28;20482;-76
2021/08/01 08:32:07;;;;;;;3.53;3.23;;;20.30;59.40;;;;;;5087829;28;20545;-76
2021/08/01 08:34:35;;;;;;;2.97;2.63;;;20.50;59.10;;;;;;5078896;28;21031;-75
2021/08/01 08:37:04;;;;;;;3.20;3.00;;;20.70;59.30;;;;;;5090688;28;20419;-75
2021/08/01 08:39:31;;;;;;;3.23;3.03;;;20.80;58.00;;;;;;5093596;28;20449;-75
2021/08/01 08:41:59;;;;;;;3.13;2.77;;;20.90;57.90;;;;;;5091589;28;20478;-77
2021/08/01 08:44:27;;;;;;;3.67;2.80;;;21.00;57.00;;;;;;5085190;28;20435;-74
2021/08/01 08:46:55;;;;;;;3.30;3.00;;;21.30;56.50;;;;;;5084861;28;20884;-75
2021/08/01 08:49:24;;;;;;;3.20;2.83;;;21.40;55.10;;;;;;5086416;28;20507;-74
2021/08/01 08:51:53;;;;;;;3.90;2.80;;;21.40;55.10;;;;;;5083046;28;20431;-75
2021/08/01 08:54:33;;;;;;;3.90;3.07;;;21.40;54.60;;;;;;5077635;28;21041;-74
2021/08/01 08:57:07;;;;;;;3.27;3.00;;;21.50;54.80;;;;;;5077253;28;20465;-76
2021/08/01 08:59:35;;;;;;;3.73;2.93;;;21.50;55.10;;;;;;5077196;28;20449;-75
2021/08/01 09:02:02;;;;;;;3.77;3.40;;;21.60;54.30;;;;;;5077133;28;20455;-75
2021/08/01 09:04:29;;;;;;;5.40;3.00;;;21.90;53.40;;;;;;5076175;28;20517;-76
2021/08/01 09:06:57;;;;;;;3.70;3.20;;;22.10;52.50;;;;;;5073522;28;20462;-76
2021/08/01 09:09:25;;;;;;;3.67;3.13;;;22.30;51.00;;;;;;5060451;28;20434;-75
2021/08/01 09:11:53;;;;;;;3.50;2.90;;;22.40;51.10;;;;;;5075221;28;20530;-75
2021/08/01 09:14:22;;;;;;;3.60;3.10;;;22.30;51.00;;;;;;5077408;28;20434;-76
2021/08/01 09:16:50;;;;;;;5.10;2.83;;;22.50;51.20;;;;;;5075426;28;20439;-75
2021/08/01 09:19:32;;;;;;;5.37;2.90;;;22.50;51.20;;;;;;5074303;28;20518;-76
2021/08/01 09:22:18;;;;;;;5.03;3.17;;;22.40;51.10;;;;;;5073321;28;20434;-75
2021/08/01 09:24:48;;;;;;;5.93;3.60;;;22.80;50.80;;;;;;5073236;28;20494;-75
2021/08/01 09:27:29;;;;;;;4.40;3.70;;;22.50;50.10;;;;;;5076250;28;20458;-75
2021/08/01 09:29:56;;;;;;;5.00;3.37;;;22.30;51.00;;;;;;5076830;28;20910;-76
2021/08/01 09:32:25;;;;;;;4.77;3.53;;;22.10;50.80;;;;;;5057700;28;20460;-75
2021/08/01 09:34:52;;;;;;;4.53;3.57;;;22.10;50.80;;;;;;5068080;28;20518;-75
2021/08/01 09:37:33;;;;;;;6.23;3.90;;;22.00;50.70;;;;;;5085919;28;20481;-76
2021/08/01 09:40:13;;;;;;;6.70;4.03;;;21.80;51.90;;;;;;5085715;28;20495;-76
2021/08/01 09:42:46;;;;;;;3.77;3.40;;;21.70;52.60;;;;;;5078007;28;20487;-77
2021/08/01 09:45:16;;;;;;;4.63;3.87;;;21.80;52.90;;;;;;5078048;28;20457;-76
2021/08/01 09:47:43;;;;;;;4.03;3.30;;;21.90;52.50;;;;;;5078362;28;20520;-76
2021/08/01 09:50:12;;;;;;;4.50;3.47;;;21.80;52.80;;;;;;5075768;28;20450;-75
2021/08/01 09:52:39;;;;;;;4.40;3.57;;;22.10;52.20;;;;;;5076387;28;20429;-76
2021/08/01 09:55:06;;;;;;;5.37;4.00;;;22.00;50.70;;;;;;5076670;28;20569;-77
2021/08/01 09:57:38;;;;;;;4.83;3.97;;;21.90;51.50;;;;;;5074417;28;20441;-75
2021/08/01 10:00:09;;;;;;;4.13;3.70;;;22.10;50.80;;;;;;5076198;28;20454;-76
2021/08/01 10:02:38;;;;;;;4.60;3.80;;;22.00;50.90;;;;;;5078496;28;20515;-75
2021/08/01 10:05:19;;;;;;;4.87;3.70;;;21.70;51.90;;;;;;5080116;28;20452;-76
2021/08/01 10:07:48;;;;;;;5.13;3.60;;;21.70;51.90;;;;;;5078647;28;20774;-76
2021/08/01 10:10:23;;;;;;;4.40;4.00;;;21.60;52.50;;;;;;5075626;28;20873;-76
2021/08/01 10:12:57;;;;;;;5.70;3.40;;;21.60;51.80;;;;;;5065758;28;20595;-77
2021/08/01 10:15:25;;;;;;;4.57;4.07;;;21.50;52.70;;;;;;5074312;28;20797;-77
2021/08/01 10:17:56;;;;;;;6.93;4.10;;;22.00;51.10;;;;;;5076244;28;20458;-75
2021/08/01 10:20:25;;;;;;;6.00;3.53;;;22.40;51.10;;;;;;5080771;28;20458;-75
2021/08/01 10:22:54;;;;;;;3.80;3.50;;;22.70;48.90;;;;;;5079996;28;20466;-75
2021/08/01 10:25:23;;;;;;;5.03;3.70;;;22.30;51.00;;;;;;5079969;28;20521;-77
2021/08/01 10:27:54;;;;;;;5.97;3.67;;;22.40;51.10;;;;;;5080887;28;20451;-77
2021/08/01 10:30:27;;;;;;;4.50;3.43;;;22.60;50.10;;;;;;5083342;28;20422;-86
2021/08/01 10:33:01;;;;;;;4.20;3.83;;;22.80;49.20;;;;;;5088537;28;20828;-80
2021/08/01 10:35:29;;;;;;;3.90;3.60;;;23.00;48.80;;;;;;5086909;28;20443;-77
2021/08/01 10:38:01;;;;;;;5.20;4.10;;;23.00;48.70;;;;;;5090541;28;20443;-78
2021/08/01 10:40:34;;;;;;;5.13;3.53;;;22.80;48.40;;;;;;5086929;28;20462;-77
2021/08/01 10:43:07;;;;;;;3.50;3.17;;;23.00;47.80;;;;;;5081915;28;20458;-78
2021/08/01 10:45:33;;;;;;;3.70;3.23;;;23.10;48.00;;;;;;5079066;28;20824;-76
2021/08/01 10:48:01;;;;;;;4.80;3.87;;;23.10;48.80;;;;;;5074959;28;20482;-75
2021/08/01 10:50:29;;;;;;;3.73;3.43;;;23.40;46.40;;;;;;5076994;28;20439;-77
2021/08/01 10:53:25;;;;;;;7.30;3.90;;;23.60;46.50;;;;;;5078808;28;20460;-76
2021/08/01 10:55:53;;;;;;;8.37;3.80;;;23.80;44.50;;;;;;5081384;28;20520;-77
2021/08/01 10:58:22;;;;;;;7.77;2.90;;;23.70;43.90;;;;;;5079726;28;20444;-75
2021/08/01 11:01:00;;;;;;;4.33;3.20;;;23.40;43.80;;;;;;5076666;28;20582;-76
2021/08/01 11:03:27;;;;;;;4.33;3.03;;;23.20;44.60;;;;;;5077259;28;20493;-76
2021/08/01 11:05:54;;;;;;;4.47;3.47;;;23.10;45.50;;;;;;5078576;28;20500;-77
2021/08/01 11:08:21;;;;;;;3.53;3.10;;;23.20;45.20;;;;;;5079013;28;20433;-76
2021/08/01 11:11:08;;;;;;;4.03;3.70;;;23.30;45.40;;;;;;5070392;28;20933;-76
2021/08/01 11:13:42;;;;;;;4.50;2.80;;;23.40;44.70;;;;;;5076670;28;20887;-76
2021/08/01 11:16:10;;;;;;;3.27;2.67;;;23.70;44.20;;;;;;5075755;28;20956;-76
2021/08/01 11:18:39;;;;;;;5.80;3.20;;;24.00;42.60;;;;;;5075035;28;20449;-76
2021/08/01 11:21:09;;;;;;;3.50;2.87;;;24.20;42.30;;;;;;5083388;28;20549;-77
2021/08/01 11:24:08;;;;;;;4.27;2.90;;;24.40;42.90;;;;;;5097435;28;20460;-77
2021/08/01 11:26:54;;;;;;;2.97;2.73;;;24.70;42.40;;;;;;5077653;28;20470;-77
2021/08/01 11:29:23;;;;;;;5.93;3.53;;;24.80;41.40;;;;;;5078240;28;20504;-77
2021/08/01 11:32:07;;;;;;;4.33;3.37;;;24.40;42.90;;;;;;5078966;28;20494;-76
2021/08/01 11:34:35;;;;;;;3.37;2.90;;;24.20;42.70;;;;;;5079721;28;20461;-76
2021/08/01 11:37:19;;;;;;;3.20;3.00;;;24.20;42.30;;;;;;5088399;28;20444;-76
2021/08/01 11:39:53;;;;;;;3.93;2.90;;;24.10;42.10;;;;;;5092189;28;20455;-77
2021/08/01 11:42:25;;;;;;;4.10;3.27;;;24.10;42.60;;;;;;5092359;28;20487;-77
2021/08/01 11:44:59;;;;;;;4.07;2.90;;;24.20;42.20;;;;;;5093121;28;20465;-77
2021/08/01 11:47:27;;;;;;;2.60;2.40;;;24.50;39.70;;;;;;5091153;28;20431;-77
2021/08/01 11:49:54;;;;;;;3.37;3.17;;;24.70;38.90;;;;;;5078711;28;20435;-77
2021/08/01 11:52:33;;;;;;;3.57;2.73;;;24.60;39.00;;;;;;5083305;28;20953;-78
2021/08/01 11:55:01;;;;;;;2.43;2.23;;;24.60;38.30;;;;;;5063726;28;20468;-80
2021/08/01 11:57:30;;;;;;;2.40;2.20;;;24.50;38.40;;;;;;5081059;28;20495;-79
2021/08/01 11:59:58;;;;;;;3.07;2.00;;;24.90;37.90;;;;;;5095295;28;20509;-79
2021/08/01 12:02:26;;;;;;;5.47;2.20;;;25.30;36.00;;;;;;5091520;28;20487;-79
2021/08/01 12:04:55;;;;;;;2.50;2.30;;;25.60;35.80;;;;;;5093409;28;20477;-78
2021/08/01 12:07:22;;;;;;;3.07;2.77;;;25.90;34.50;;;;;;5094033;28;20449;-79
2021/08/01 12:09:50;;;;;;;3.93;2.60;;;26.00;34.50;;;;;;5095403;28;20438;-78
2021/08/01 12:12:28;;;;;;;4.20;2.57;;;25.70;35.50;;;;;;5098739;28;20459;-78
2021/08/01 12:14:56;;;;;;;5.60;2.50;;;25.90;35.70;;;;;;5085649;28;20459;-78
2021/08/01 12:17:24;;;;;;;3.90;2.50;;;25.80;35.70;;;;;;5078770;28;20437;-78
2021/08/01 12:19:52;;;;;;;3.70;2.63;;;25.90;35.00;;;;;;5081204;28;20461;-78
2021/08/01 12:22:21;;;;;;;2.47;2.27;;;25.70;34.70;;;;;;5081033;28;20425;-77
2021/08/01 12:24:49;;;;;;;3.60;2.40;;;25.50;36.80;;;;;;5076879;28;20494;-78
2021/08/01 12:27:18;;;;;;;2.63;2.43;;;25.50;35.50;;;;;;5077251;28;20557;-78
2021/08/01 12:29:47;;;;;;;2.83;2.27;;;25.50;35.90;;;;;;5076149;28;20452;-79
2021/08/01 12:32:19;;;;;;;5.20;2.27;;;25.10;35.50;;;;;;5077117;28;20464;-78
2021/08/01 12:34:48;;;;;;;3.30;2.33;;;25.00;35.80;;;;;;5076717;28;20476;-78
2021/08/01 12:37:15;;;;;;;1.63;1.53;;;24.20;35.90;;;;;;5076352;28;20422;-78
2021/08/01 12:39:45;;;;;;;1.40;1.30;;;23.60;37.10;;;;;;5076692;28;20438;-78
2021/08/01 12:42:13;;;;;;;1.97;1.53;;;23.00;38.10;;;;;;5078640;28;20484;-78
2021/08/01 12:44:57;;;;;;;1.53;1.43;;;22.30;39.00;;;;;;5078441;28;20503;-78
2021/08/01 12:47:25;;;;;;;4.37;1.87;;;21.90;39.00;;;;;;5077834;28;20938;-78
2021/08/01 12:49:55;;;;;;;2.43;1.40;;;21.60;39.10;;;;;;5080030;28;20437;-78
2021/08/01 12:52:24;;;;;;;2.60;1.70;;;21.30;40.00;;;;;;5084733;28;20454;-79
2021/08/01 12:54:55;;;;;;;1.60;1.50;;;21.20;41.40;;;;;;5091424;28;20470;-78
2021/08/01 12:57:22;;;;;;;1.63;1.30;;;20.90;45.70;;;;;;5085233;28;20445;-77
2021/08/01 13:00:11;;;;;;;6.07;1.70;;;20.40;49.20;;;;;;5091795;28;20441;-78
2021/08/01 13:02:39;;;;;;;3.40;1.47;;;20.00;54.20;;;;;;5078501;28;20457;-78